Time;durP1;ratioP1;P1;durP2;ratioP2;P2;SDS_P1;SDS_P2;PMS_P1;PMS_P2;Temp;Humidity;BMP_temperature;BMP_pressure;BME280_temperature;BME280_humidity;BME280_pressure;Samples;Min_cycle;Max_cycle;Signal;HPM_P1;HPM_P2
2022/01/30 00:01:01;;;;;;;76.45;26.92;;;;;;;-12.73;63.43;99168.38;4973007;28;20047;-80
2022/01/30 00:03:27;;;;;;;74.75;25.88;;;;;;;-12.73;63.23;99160.66;4956529;28;20085;-80
2022/01/30 00:05:53;;;;;;;65.88;26.23;;;;;;;-12.70;63.33;99152.09;4940482;28;20046;-81
2022/01/30 00:08:20;;;;;;;54.92;21.05;;;;;;;-12.61;63.35;99165.91;4924872;28;20129;-79
2022/01/30 00:10:51;;;;;;;57.00;21.45;;;;;;;-12.63;63.49;99149.59;4972693;28;20043;-80
2022/01/30 00:13:19;;;;;;;60.05;21.63;;;;;;;-12.61;63.60;99152.16;4957570;28;20057;-80
2022/01/30 00:15:52;;;;;;;56.83;19.23;;;;;;;-12.53;63.71;99147.94;4940850;28;20082;-81
2022/01/30 00:21:14;;;;;;;53.65;18.33;;;;;;;-12.39;63.73;99153.22;4972974;28;20050;-81
2022/01/30 00:23:50;;;;;;;41.10;15.57;;;;;;;-12.32;63.89;99153.28;4935759;28;20051;-80
2022/01/30 00:26:17;;;;;;;40.58;16.15;;;;;;;-12.27;63.88;99151.59;4961723;28;20438;-81
2022/01/30 00:28:44;;;;;;;52.65;18.25;;;;;;;-12.30;63.62;99153.28;4963340;28;20127;-79
2022/01/30 00:31:11;;;;;;;43.50;16.65;;;;;;;-12.30;63.46;99150.72;4948145;28;20157;-80
2022/01/30 00:33:37;;;;;;;46.78;16.70;;;;;;;-12.38;63.52;99142.06;4978002;28;20450;-80
2022/01/30 00:36:04;;;;;;;47.50;17.50;;;;;;;-12.39;63.96;99151.50;4976452;28;20046;-81
2022/01/30 00:38:34;;;;;;;44.35;18.48;;;;;;;-12.35;63.72;99142.97;4960923;28;20053;-80
2022/01/30 00:41:00;;;;;;;54.40;19.15;;;;;;;-12.38;63.63;99139.50;4976406;28;20137;-81
2022/01/30 00:43:26;;;;;;;37.33;15.93;;;;;;;-12.26;64.04;99152.47;4944255;28;20047;-80
2022/01/30 00:45:52;;;;;;;40.08;16.63;;;;;;;-12.16;64.48;99154.28;4960226;28;20418;-80
2022/01/30 00:48:18;;;;;;;46.15;15.25;;;;;;;-12.10;64.42;99156.06;4960194;28;20141;-80
2022/01/30 00:50:44;;;;;;;43.63;16.25;;;;;;;-12.08;64.71;99150.03;4960459;28;20038;-81
2022/01/30 00:53:10;;;;;;;42.67;17.13;;;;;;;-12.06;64.66;99162.94;4944504;28;20046;-83
2022/01/30 00:55:36;;;;;;;50.28;17.27;;;;;;;-11.98;64.23;99152.69;4944021;28;20042;-80
2022/01/30 00:58:02;;;;;;;41.72;15.55;;;;;;;-11.91;64.15;99149.31;4943752;28;20047;-81
2022/01/30 01:00:29;;;;;;;32.33;14.90;;;;;;;-11.88;64.23;99144.16;4944370;28;20058;-81
2022/01/30 01:02:55;;;;;;;36.40;14.95;;;;;;;-11.86;64.29;99145.03;4943953;28;20589;-81
2022/01/30 01:05:22;;;;;;;39.15;15.77;;;;;;;-11.84;64.51;99153.66;4959955;28;20058;-80
2022/01/30 01:07:51;;;;;;;37.13;14.30;;;;;;;-11.84;64.67;99145.94;4944295;28;20078;-82
2022/01/30 01:10:29;;;;;;;35.47;15.35;;;;;;;-11.74;64.27;99157.97;4944148;28;20070;-80
2022/01/30 01:13:07;;;;;;;47.42;17.25;;;;;;;-11.69;63.94;99138.25;4990965;28;20050;-80
2022/01/30 01:23:52;;;;;;;35.40;14.60;;;;;;;-11.70;64.44;99128.75;4945703;28;20193;-80
2022/01/30 01:26:21;;;;;;;39.35;15.75;;;;;;;-11.62;64.56;99126.22;4959870;28;20106;-80
2022/01/30 01:28:47;;;;;;;33.17;13.20;;;;;;;-11.46;64.52;99127.19;4944166;28;20046;-79
2022/01/30 01:31:14;;;;;;;38.88;13.77;;;;;;;-11.49;64.64;99112.53;4992893;28;20145;-80
2022/01/30 01:36:05;;;;;;;32.50;13.52;;;;;;;-11.41;64.78;99120.31;4924257;29;20059;-80
2022/01/30 01:38:31;;;;;;;31.98;13.68;;;;;;;-11.38;64.80;99126.34;4956113;29;20047;-80
2022/01/30 01:40:57;;;;;;;34.22;13.57;;;;;;;-11.34;64.38;99122.06;4952101;28;20246;-79
2022/01/30 01:43:24;;;;;;;27.88;11.52;;;;;;;-11.25;64.51;99112.63;4941559;29;20039;-79
2022/01/30 01:45:52;;;;;;;34.42;13.43;;;;;;;-11.29;64.07;99125.50;4946685;28;20051;-81
2022/01/30 01:48:18;;;;;;;39.97;15.18;;;;;;;-11.35;63.84;99130.66;4976795;28;20418;-80
2022/01/30 01:50:51;;;;;;;41.38;14.38;;;;;;;-11.34;63.96;99127.22;4959071;28;20042;-79
2022/01/30 01:53:19;;;;;;;43.08;16.40;;;;;;;-11.38;63.72;99121.19;4975911;28;20126;-79
2022/01/30 01:55:45;;;;;;;42.20;14.63;;;;;;;-11.30;63.69;99127.25;4958244;28;20047;-80
2022/01/30 01:58:24;;;;;;;34.75;14.73;;;;;;;-11.35;63.77;99120.34;4961706;28;20513;-80
2022/01/30 02:01:19;;;;;;;50.03;17.45;;;;;;;-11.35;64.19;99120.34;4950290;28;20082;-80
2022/01/30 02:03:45;;;;;;;61.10;19.63;;;;;;;-11.22;64.07;99109.19;4975902;28;20086;-81
2022/01/30 02:06:15;;;;;;;52.13;19.20;;;;;;;-11.32;63.74;99107.44;4990849;28;20093;-78
2022/01/30 02:08:49;;;;;;;47.13;18.63;;;;;;;-11.20;64.23;99097.19;4912205;28;20109;-80
2022/01/30 02:11:28;;;;;;;52.38;19.50;;;;;;;-11.15;63.48;99098.06;4976281;28;20056;-79
2022/01/30 02:27:27;;;;;;;58.08;20.40;;;;;;;-11.55;64.15;99095.31;4943450;28;20101;-79
2022/01/30 02:29:53;;;;;;;50.40;20.58;;;;;;;-11.48;63.91;99098.78;4958675;28;20054;-81
2022/01/30 02:32:20;;;;;;;52.08;19.13;;;;;;;-11.47;63.30;99102.22;4942618;28;20050;-79
2022/01/30 02:34:46;;;;;;;46.08;18.85;;;;;;;-11.66;63.33;99098.69;4958392;28;20055;-77
2022/01/30 02:37:13;;;;;;;48.42;18.45;;;;;;;-11.82;64.01;99102.91;4942312;28;20046;-80
2022/01/30 02:39:40;;;;;;;68.97;20.45;;;;;;;-11.72;63.97;99099.56;4942321;28;20070;-79
2022/01/30 02:42:06;;;;;;;54.38;19.48;;;;;;;-11.63;64.37;99099.59;4958119;28;20506;-78
2022/01/30 02:45:09;;;;;;;52.95;18.55;;;;;;;-11.50;64.28;99100.50;4941918;28;20062;-79
2022/01/30 02:47:40;;;;;;;50.60;18.67;;;;;;;-11.49;64.27;99104.81;4959158;28;20154;-83
2022/01/30 02:50:14;;;;;;;42.97;17.85;;;;;;;-11.43;64.33;99111.69;4962237;28;20410;-81
2022/01/30 02:52:43;;;;;;;40.20;15.77;;;;;;;-11.41;64.39;99099.69;4964273;28;20074;-79
2022/01/30 02:55:11;;;;;;;48.95;19.38;;;;;;;-11.27;64.74;99105.75;4962905;28;20030;-81
2022/01/30 02:57:36;;;;;;;46.15;17.65;;;;;;;-11.12;64.53;99103.22;4958162;28;20125;-78
2022/01/30 03:00:04;;;;;;;47.60;17.58;;;;;;;-11.18;64.29;99102.34;4973753;28;20054;-80
2022/01/30 03:02:30;;;;;;;40.88;16.50;;;;;;;-11.12;64.42;99100.66;4925970;28;20050;-82
2022/01/30 03:04:56;;;;;;;48.53;18.48;;;;;;;-10.98;64.56;99103.28;4957686;28;20054;-79
2022/01/30 03:07:22;;;;;;;48.40;19.25;;;;;;;-10.91;64.24;99098.97;4974826;28;20050;-79
2022/01/30 03:09:54;;;;;;;49.55;20.23;;;;;;;-10.92;63.88;99085.19;4942506;28;20403;-78
2022/01/30 03:12:22;;;;;;;55.65;18.15;;;;;;;-10.98;63.77;99079.16;4973564;28;20124;-78
2022/01/30 03:14:47;;;;;;;50.67;18.75;;;;;;;-10.90;63.96;99090.38;4925706;28;20530;-81
2022/01/30 03:17:13;;;;;;;47.55;19.98;;;;;;;-10.90;64.01;99083.50;4951006;29;20063;-79
2022/01/30 03:19:40;;;;;;;50.17;19.20;;;;;;;-11.11;63.96;99079.13;4908640;28;20098;-79
2022/01/30 03:22:06;;;;;;;50.22;20.50;;;;;;;-11.25;64.47;99083.38;4973374;28;20066;-79
2022/01/30 03:24:36;;;;;;;52.35;19.90;;;;;;;-11.20;64.75;99092.03;4957849;28;20490;-79
2022/01/30 03:27:13;;;;;;;33.05;13.95;;;;;;;-11.25;64.76;99085.97;4935614;29;20411;-79
2022/01/30 03:30:03;;;;;;;39.53;16.27;;;;;;;-11.21;64.86;99074.78;4954772;29;20059;-81
2022/01/30 03:32:49;;;;;;;47.95;18.48;;;;;;;-10.96;64.96;99067.13;4942604;29;20105;-79
2022/01/30 03:35:16;;;;;;;47.88;17.13;;;;;;;-10.87;64.86;99051.63;4970436;28;20133;-79
2022/01/30 03:37:42;;;;;;;44.97;17.63;;;;;;;-10.71;65.12;99068.88;4925207;28;20039;-79
2022/01/30 03:40:11;;;;;;;39.95;16.48;;;;;;;-10.64;64.91;99060.28;4956927;28;20058;-79
2022/01/30 03:42:38;;;;;;;39.08;16.55;;;;;;;-10.61;64.97;99062.84;4941542;28;20046;-79
2022/01/30 03:45:04;;;;;;;47.45;19.63;;;;;;;-10.64;64.82;99044.78;4925447;28;20490;-79
2022/01/30 03:47:30;;;;;;;45.28;17.38;;;;;;;-10.47;64.91;99056.81;4941107;28;20047;-81
2022/01/30 03:49:58;;;;;;;44.78;19.58;;;;;;;-10.54;65.15;99046.47;4941655;28;20133;-79
2022/01/30 03:52:24;;;;;;;57.50;18.13;;;;;;;-10.42;65.38;99058.53;4941191;28;20561;-78
2022/01/30 03:54:50;;;;;;;37.53;16.33;;;;;;;-10.44;65.28;99056.81;4941248;28;20051;-79
2022/01/30 03:57:16;;;;;;;38.47;18.13;;;;;;;-10.48;65.57;99048.22;4956447;28;20459;-80
2022/01/30 03:59:44;;;;;;;34.83;15.75;;;;;;;-10.39;66.10;99049.91;4957774;28;20053;-76
2022/01/30 04:02:11;;;;;;;41.42;15.43;;;;;;;-10.36;65.83;99045.63;4973256;28;20082;-78
2022/01/30 04:04:37;;;;;;;42.70;15.88;;;;;;;-10.31;65.71;99043.88;4957261;28;20050;-77
2022/01/30 04:07:03;;;;;;;41.58;17.20;;;;;;;-10.31;65.54;99043.00;4926958;28;20046;-79
2022/01/30 04:09:54;;;;;;;47.28;15.02;;;;;;;-10.18;65.88;99052.44;4951693;28;20049;-80
2022/01/30 04:12:36;;;;;;;33.63;14.80;;;;;;;-10.15;65.88;99051.59;4956645;28;20070;-80
2022/01/30 04:15:12;;;;;;;37.53;14.85;;;;;;;-10.08;65.63;99055.88;4947897;28;20050;-78
2022/01/30 04:18:04;;;;;;;28.88;12.85;;;;;;;-10.14;65.53;99056.75;4946226;28;20050;-79
2022/01/30 04:20:48;;;;;;;21.90;9.57;;;;;;;-10.08;65.43;99056.75;4974457;28;20042;-79
2022/01/30 04:23:39;;;;;;;48.70;12.45;;;;;;;-10.18;66.31;99059.34;4946568;28;20557;-77
2022/01/30 04:26:23;;;;;;;33.83;12.43;;;;;;;-10.05;66.36;99067.06;4947059;28;20046;-77
2022/01/30 04:29:11;;;;;;;32.42;12.35;;;;;;;-10.11;66.83;99072.25;4973150;28;20135;-78
2022/01/30 04:31:57;;;;;;;27.52;11.45;;;;;;;-9.91;66.67;99059.28;4942861;28;20073;-77
2022/01/30 04:34:36;;;;;;;40.85;12.07;;;;;;;-9.74;66.41;99061.84;4944011;28;20054;-80
2022/01/30 04:37:48;;;;;;;29.63;11.57;;;;;;;-9.63;65.96;99065.22;4932821;28;20042;-80
2022/01/30 04:53:15;;;;;;;23.05;10.57;;;;;;;-8.97;65.45;99066.66;4972702;28;20054;-78
2022/01/30 04:56:46;;;;;;;;;;;;;;;-8.90;64.89;99070.91;4976397;28;20043;-79
2022/01/30 05:00:04;;;;;;;19.67;9.63;;;;;;;-9.00;64.81;99054.56;4973445;28;19949;-81
2022/01/30 05:08:16;;;;;;;19.38;9.02;;;;;;;-9.11;64.93;99057.22;4972965;28;20089;-81
2022/01/30 05:11:04;;;;;;;42.03;14.20;;;;;;;-9.09;65.28;99057.22;4976237;28;20034;-77
2022/01/30 05:13:56;;;;;;;26.67;11.80;;;;;;;-9.09;65.75;99058.06;4948828;28;20051;-77
2022/01/30 05:16:26;;;;;;;41.72;14.30;;;;;;;-8.91;65.72;99069.19;4975628;28;20046;-77
2022/01/30 05:19:16;;;;;;;34.47;12.80;;;;;;;-8.76;65.02;99073.41;4936014;28;20066;-79
2022/01/30 05:22:06;;;;;;;35.33;13.80;;;;;;;-8.68;65.34;99069.06;4935588;28;20414;-77
2022/01/30 05:24:46;;;;;;;33.97;13.05;;;;;;;-8.52;65.27;99059.41;4931734;28;20398;-79
2022/01/30 05:27:26;;;;;;;25.70;10.48;;;;;;;-8.38;64.51;99061.03;4959482;28;20038;-78
2022/01/30 05:30:18;;;;;;;35.10;14.25;;;;;;;-8.27;64.26;99070.38;4934174;28;20486;-80
2022/01/30 05:33:11;;;;;;;34.22;13.80;;;;;;;-8.24;63.94;99066.03;4961573;28;20507;-78
2022/01/30 05:35:38;;;;;;;23.13;9.70;;;;;;;-8.36;63.89;99056.63;4976435;28;20058;-79
2022/01/30 05:38:24;;;;;;;49.75;18.08;;;;;;;-8.23;63.96;99070.38;4941859;28;20446;-79
2022/01/30 05:40:59;;;;;;;47.38;17.00;;;;;;;-8.08;63.64;99064.19;4975314;28;20088;-78
2022/01/30 05:43:52;;;;;;;90.78;30.80;;;;;;;-8.17;63.47;99059.06;4958774;28;20038;-80
2022/01/30 05:46:37;;;;;;;85.25;30.90;;;;;;;-8.10;63.65;99056.41;4959017;28;20035;-80
2022/01/30 05:49:22;;;;;;;81.80;26.60;;;;;;;-7.90;63.91;99044.97;4962669;28;20055;-79
2022/01/30 05:52:06;;;;;;;90.53;29.23;;;;;;;-7.72;63.35;99042.16;4948292;28;20046;-80
2022/01/30 05:54:40;;;;;;;79.35;29.33;;;;;;;-7.65;63.35;99046.41;4960069;28;20054;-80
2022/01/30 05:57:06;;;;;;;100.22;32.60;;;;;;;-7.50;62.98;99034.13;4932059;28;20043;-79
2022/01/30 05:59:37;;;;;;;88.03;28.60;;;;;;;-7.37;62.97;99025.31;4928510;28;20546;-78
2022/01/30 06:02:19;;;;;;;74.28;27.45;;;;;;;-7.14;62.38;99046.66;4974915;28;20051;-79
2022/01/30 06:04:45;;;;;;;76.88;27.98;;;;;;;-7.13;61.82;99055.28;4942724;28;20046;-78
2022/01/30 06:07:12;;;;;;;100.10;31.40;;;;;;;-7.18;61.66;99059.72;4959047;28;20053;-79
2022/01/30 06:09:39;;;;;;;89.70;31.00;;;;;;;-7.13;61.66;99057.91;4959077;28;20505;-79
2022/01/30 06:12:05;;;;;;;68.03;26.05;;;;;;;-7.34;61.33;99056.41;4942628;28;20075;-80
2022/01/30 06:14:33;;;;;;;96.97;34.10;;;;;;;-7.39;61.99;99063.41;4942649;28;20065;-79
2022/01/30 06:17:04;;;;;;;101.57;34.33;;;;;;;-7.23;62.24;99059.75;4959238;28;20121;-78
2022/01/30 06:20:06;;;;;;;120.28;39.08;;;;;;;-7.05;61.62;99063.00;4904707;29;20060;-79
2022/01/30 06:22:50;;;;;;;131.98;43.05;;;;;;;-6.98;61.28;99056.84;4958925;28;20058;-80
2022/01/30 06:25:55;;;;;;;133.25;43.13;;;;;;;-6.91;61.07;99061.91;4907962;29;20055;-79
2022/01/30 06:28:40;;;;;;;123.50;38.55;;;;;;;-6.92;61.25;99065.41;4948150;28;20109;-77
2022/01/30 06:31:26;;;;;;;100.00;33.03;;;;;;;-6.76;60.74;99049.59;4947728;28;20133;-80
2022/01/30 06:34:12;;;;;;;95.70;32.60;;;;;;;-6.64;60.64;99052.84;4940897;28;20130;-81
2022/01/30 06:37:05;;;;;;;84.18;28.73;;;;;;;-6.52;60.53;99049.19;4974149;28;20513;-81
2022/01/30 06:40:07;;;;;;;70.32;23.98;;;;;;;-6.46;59.56;99048.25;4904602;29;20060;-79
2022/01/30 06:42:53;;;;;;;60.65;21.23;;;;;;;-6.40;59.83;99042.94;4961739;28;20062;-80
2022/01/30 06:45:37;;;;;;;55.28;20.85;;;;;;;-6.34;59.70;99037.63;4947477;28;20136;-78
2022/01/30 06:48:19;;;;;;;48.38;19.63;;;;;;;-6.32;59.54;99035.84;4945887;28;20050;-79
2022/01/30 06:51:12;;;;;;;51.95;17.80;;;;;;;-6.37;59.39;99032.47;4951910;28;20064;-80
2022/01/30 06:54:07;;;;;;;38.15;14.30;;;;;;;-6.37;59.63;99029.88;4910807;28;20067;-79
2022/01/30 06:57:02;;;;;;;30.58;12.68;;;;;;;-6.40;60.01;99027.31;4944146;28;20126;-80
2022/01/30 06:59:46;;;;;;;32.83;13.60;;;;;;;-6.44;59.94;99033.47;4960330;28;20073;-81
2022/01/30 07:02:31;;;;;;;38.70;15.13;;;;;;;-6.28;59.95;99029.75;4947081;28;20125;-81
2022/01/30 07:05:19;;;;;;;35.53;14.48;;;;;;;-6.14;59.37;99019.94;4974064;28;20430;-81
2022/01/30 07:07:52;;;;;;;43.22;15.27;;;;;;;-6.01;59.22;99019.72;4943831;28;20039;-80
2022/01/30 07:10:19;;;;;;;29.65;12.15;;;;;;;-5.98;58.97;99017.03;4957640;28;20134;-79
2022/01/30 07:12:45;;;;;;;45.10;14.73;;;;;;;-5.84;58.59;99002.00;4941840;28;20223;-79
2022/01/30 07:15:11;;;;;;;31.08;13.23;;;;;;;-5.71;58.30;99000.03;4957683;28;20121;-79
2022/01/30 07:17:37;;;;;;;24.90;11.45;;;;;;;-5.65;58.04;99015.50;4941592;28;20082;-78
2022/01/30 07:20:04;;;;;;;35.92;13.82;;;;;;;-5.86;58.30;99014.19;4957327;28;20077;-81
2022/01/30 07:22:31;;;;;;;34.63;14.10;;;;;;;-5.72;58.59;99016.50;4957263;28;20058;-79
2022/01/30 07:24:57;;;;;;;35.15;12.15;;;;;;;-5.99;58.29;99002.31;4941343;28;20070;-80
2022/01/30 07:27:23;;;;;;;39.20;15.23;;;;;;;-5.93;58.81;99010.03;4957553;28;20051;-79
2022/01/30 07:29:49;;;;;;;33.85;14.18;;;;;;;-5.76;59.00;99015.72;4925662;28;20185;-79
2022/01/30 07:32:15;;;;;;;36.70;13.55;;;;;;;-5.55;58.70;99013.59;4941001;28;20047;-79
2022/01/30 07:34:42;;;;;;;32.33;14.65;;;;;;;-5.32;58.23;99020.94;4925639;28;20042;-78
2022/01/30 07:37:11;;;;;;;37.30;14.93;;;;;;;-5.30;57.84;99009.59;4941403;28;20066;-80
2022/01/30 07:39:38;;;;;;;40.58;16.33;;;;;;;-5.25;58.02;99001.66;4941281;28;20054;-79
2022/01/30 07:42:04;;;;;;;47.40;16.70;;;;;;;-5.12;57.77;98998.75;4973074;28;20039;-79
2022/01/30 07:44:32;;;;;;;40.28;14.38;;;;;;;-4.96;57.41;98990.59;4957870;28;20095;-80
2022/01/30 07:46:58;;;;;;;32.92;14.15;;;;;;;-4.98;56.89;98980.19;4957739;28;20050;-79
2022/01/30 07:49:24;;;;;;;25.20;12.80;;;;;;;-4.95;56.49;98989.69;4957488;28;20088;-80
2022/01/30 07:51:50;;;;;;;35.45;14.27;;;;;;;-4.75;56.70;98969.22;4943233;28;20499;-78
2022/01/30 07:54:16;;;;;;;41.78;14.27;;;;;;;-4.45;56.33;98985.00;4945047;28;20506;-80
2022/01/30 07:56:42;;;;;;;34.92;13.82;;;;;;;-4.11;56.30;98976.31;4943973;28;20042;-78
2022/01/30 07:59:07;;;;;;;33.90;13.35;;;;;;;-3.76;56.05;98976.22;4958478;28;20061;-80
2022/01/30 08:01:33;;;;;;;37.20;13.18;;;;;;;-3.64;54.58;98971.56;4973857;28;20245;-80
2022/01/30 08:04:00;;;;;;;39.00;14.32;;;;;;;-3.54;54.12;98959.91;4972994;28;20038;-79
2022/01/30 08:06:27;;;;;;;34.63;13.85;;;;;;;-3.31;53.72;98967.06;4973037;28;20133;-79
2022/01/30 08:08:53;;;;;;;31.35;12.95;;;;;;;-3.29;52.90;98966.13;4972737;28;20054;-78
2022/01/30 08:11:19;;;;;;;31.48;14.05;;;;;;;-3.28;53.12;98960.00;4974400;28;20414;-80
2022/01/30 08:13:45;;;;;;;33.78;13.15;;;;;;;-3.17;53.05;98955.28;4973911;28;20082;-81
2022/01/30 08:16:11;;;;;;;32.50;14.18;;;;;;;-3.08;52.76;98953.31;4925014;28;20046;-79
2022/01/30 08:18:38;;;;;;;33.95;13.65;;;;;;;-2.88;53.46;98953.53;4925132;28;20564;-82
2022/01/30 08:21:05;;;;;;;36.22;14.18;;;;;;;-2.86;52.74;98954.34;4956706;28;20058;-78
2022/01/30 08:23:33;;;;;;;30.30;12.90;;;;;;;-3.31;52.09;98930.47;4974059;28;20070;-78
2022/01/30 08:26:00;;;;;;;26.85;12.23;;;;;;;-3.51;52.66;98944.16;4941006;28;20101;-79
2022/01/30 08:28:26;;;;;;;33.20;13.75;;;;;;;-3.70;53.56;98936.00;4956468;28;20055;-79
2022/01/30 08:30:52;;;;;;;30.13;12.90;;;;;;;-3.64;53.95;98942.81;4940985;28;20043;-79
2022/01/30 08:33:18;;;;;;;29.55;12.35;;;;;;;-3.85;53.73;98937.28;4972668;28;20055;-79
2022/01/30 08:35:45;;;;;;;33.75;13.77;;;;;;;-3.99;54.33;98942.03;4956453;28;20387;-79
2022/01/30 08:38:12;;;;;;;31.60;12.63;;;;;;;-4.30;54.89;98942.88;4940991;28;20046;-79
2022/01/30 08:40:39;;;;;;;32.25;13.45;;;;;;;-4.22;55.50;98935.69;4956705;28;20043;-79
2022/01/30 08:43:04;;;;;;;35.40;12.65;;;;;;;-4.09;55.33;98935.38;4942508;28;20466;-80
2022/01/30 08:45:31;;;;;;;25.67;12.43;;;;;;;-3.91;55.30;98932.25;4976240;28;20569;-80
2022/01/30 08:47:57;;;;;;;32.58;13.73;;;;;;;-3.67;55.29;98928.94;4944254;28;20038;-78
2022/01/30 08:50:24;;;;;;;33.08;13.05;;;;;;;-3.47;54.91;98927.47;4960050;28;20061;-79
2022/01/30 08:52:50;;;;;;;24.75;12.90;;;;;;;-3.54;54.54;98929.41;4960408;28;20087;-79
2022/01/30 08:55:16;;;;;;;27.52;12.40;;;;;;;-3.28;54.61;98936.47;4944217;28;20120;-81
2022/01/30 08:57:42;;;;;;;22.35;11.48;;;;;;;-3.08;53.57;98933.25;4944367;28;20509;-81
2022/01/30 09:00:11;;;;;;;26.30;11.18;;;;;;;-3.13;53.64;98916.84;4928673;28;20047;-80
2022/01/30 09:02:37;;;;;;;24.60;11.90;;;;;;;-3.09;53.50;98918.44;4944817;28;20509;-78
2022/01/30 09:05:08;;;;;;;23.38;11.38;;;;;;;-2.88;53.47;98923.91;4945613;28;20078;-79
2022/01/30 09:07:34;;;;;;;21.08;10.10;;;;;;;-2.85;53.44;98927.28;4947926;28;20137;-82
2022/01/30 09:10:01;;;;;;;23.25;10.93;;;;;;;-3.15;53.51;98920.44;4928002;28;20042;-80
2022/01/30 09:12:28;;;;;;;32.42;11.30;;;;;;;-3.06;53.71;98896.59;4960020;28;20051;-81
2022/01/30 09:14:54;;;;;;;22.55;10.98;;;;;;;-2.97;53.22;98919.81;4943713;28;20132;-79
2022/01/30 09:17:22;;;;;;;25.13;11.85;;;;;;;-3.02;53.46;98930.44;4943946;28;20039;-79
2022/01/30 09:19:48;;;;;;;25.60;11.80;;;;;;;-3.06;53.19;98933.19;4943911;28;20034;-79
2022/01/30 09:22:15;;;;;;;27.02;11.43;;;;;;;-3.38;53.30;98929.84;4927707;28;20063;-79
2022/01/30 09:24:41;;;;;;;28.83;12.43;;;;;;;-3.72;54.28;98936.06;4959794;28;20051;-80
2022/01/30 09:27:09;;;;;;;27.85;12.30;;;;;;;-3.93;55.07;98936.66;4943662;28;20046;-80
2022/01/30 09:29:35;;;;;;;26.33;13.32;;;;;;;-4.11;55.55;98937.16;4943934;28;20057;-80
2022/01/30 09:32:02;;;;;;;29.50;12.75;;;;;;;-4.29;55.84;98926.31;4959307;28;20043;-79
2022/01/30 09:34:28;;;;;;;34.42;14.07;;;;;;;-4.32;56.47;98929.03;4959841;28;20554;-79
2022/01/30 09:36:55;;;;;;;30.17;12.70;;;;;;;-4.20;56.37;98922.63;4943517;28;20097;-79
2022/01/30 09:39:22;;;;;;;30.10;12.70;;;;;;;-4.40;57.09;98917.91;4959178;28;20073;-80
2022/01/30 09:41:48;;;;;;;32.45;13.93;;;;;;;-4.23;57.17;98915.72;4959077;28;20043;-79
2022/01/30 09:44:15;;;;;;;29.27;12.50;;;;;;;-4.24;56.88;98906.19;4974958;28;20047;-80
2022/01/30 09:46:42;;;;;;;29.48;13.80;;;;;;;-4.07;57.25;98907.47;4942987;28;20073;-79
2022/01/30 09:49:08;;;;;;;32.72;13.48;;;;;;;-4.00;56.91;98891.56;4943527;28;20050;-80
2022/01/30 09:51:34;;;;;;;28.23;12.73;;;;;;;-3.80;57.11;98900.59;4959526;28;20421;-79
2022/01/30 09:54:03;;;;;;;32.17;13.15;;;;;;;-3.82;56.37;98892.81;4926367;28;20047;-78
2022/01/30 09:56:29;;;;;;;29.67;14.23;;;;;;;-3.87;56.45;98904.28;4974932;28;20046;-80
2022/01/30 09:58:55;;;;;;;27.08;12.45;;;;;;;-4.26;56.56;98894.91;4926878;28;20089;-80
2022/01/30 10:01:21;;;;;;;26.15;12.63;;;;;;;-4.38;57.23;98890.03;4962869;28;20047;-82
2022/01/30 10:03:47;;;;;;;27.88;12.80;;;;;;;-4.45;57.34;98896.31;4943055;28;20090;-80
2022/01/30 10:06:18;;;;;;;31.60;14.52;;;;;;;-4.41;57.13;98893.56;4942605;28;20034;-78
2022/01/30 10:08:47;;;;;;;31.48;13.98;;;;;;;-4.32;57.68;98889.03;4959348;28;20051;-78
2022/01/30 10:11:28;;;;;;;30.20;13.18;;;;;;;-4.39;57.48;98896.16;4943180;28;20497;-78
2022/01/30 10:14:11;;;;;;;29.75;13.45;;;;;;;-4.39;57.85;98896.16;4943986;28;20074;-78
2022/01/30 10:16:41;;;;;;;30.17;13.32;;;;;;;-4.03;57.90;98894.28;4942804;28;20043;-77
2022/01/30 10:19:08;;;;;;;27.23;13.02;;;;;;;-3.74;57.48;98877.78;4958455;28;20074;-78
2022/01/30 10:21:34;;;;;;;26.95;12.73;;;;;;;-3.59;56.25;98883.44;4958629;28;20077;-81
2022/01/30 10:24:00;;;;;;;31.55;13.70;;;;;;;-3.45;56.56;98889.13;4941108;28;20502;-81
2022/01/30 10:26:32;;;;;;;38.08;13.52;;;;;;;-3.47;56.12;98872.59;4957619;28;20058;-81
2022/01/30 10:29:19;;;;;;;34.75;16.70;;;;;;;-3.51;56.15;98887.53;4926323;28;20050;-83
2022/01/30 10:32:05;;;;;;;32.28;15.18;;;;;;;-3.38;56.13;98877.56;4942293;28;20043;-80
2022/01/30 10:34:36;;;;;;;35.55;14.77;;;;;;;-3.37;55.41;98879.28;4941250;28;20065;-79
2022/01/30 10:37:23;;;;;;;30.38;14.45;;;;;;;-3.58;55.69;98874.69;4941857;28;20066;-81
2022/01/30 10:40:06;;;;;;;28.55;14.50;;;;;;;-3.69;55.83;98877.63;4958698;28;20058;-80
2022/01/30 10:42:48;;;;;;;35.58;15.05;;;;;;;-3.82;56.53;98877.16;4942294;28;20078;-80
2022/01/30 10:45:31;;;;;;;34.60;14.38;;;;;;;-3.76;56.78;98866.53;4942275;28;20093;-79
2022/01/30 10:48:17;;;;;;;31.30;13.73;;;;;;;-3.55;57.17;98885.06;4941779;28;20046;-78
2022/01/30 10:50:46;;;;;;;37.83;13.75;;;;;;;-3.47;56.86;98889.13;4927090;28;20074;-79
2022/01/30 10:53:25;;;;;;;25.27;11.55;;;;;;;-3.46;56.54;98874.31;4925143;28;20050;-79
2022/01/30 10:55:51;;;;;;;29.05;13.65;;;;;;;-3.35;56.97;98872.22;4926053;28;20051;-79
2022/01/30 10:58:21;;;;;;;28.95;11.13;;;;;;;-3.45;57.61;98870.81;4957705;28;20051;-79
2022/01/30 11:00:48;;;;;;;24.38;11.45;;;;;;;-3.58;57.52;98864.25;4957640;28;20057;-79
2022/01/30 11:03:37;;;;;;;25.23;12.57;;;;;;;-3.54;57.94;98868.47;4957509;28;20043;-79
2022/01/30 11:06:07;;;;;;;24.27;11.55;;;;;;;-3.48;57.94;98861.31;4941859;28;20045;-79
2022/01/30 11:08:34;;;;;;;23.60;11.50;;;;;;;-3.27;58.01;98870.25;4910732;28;20054;-80
2022/01/30 11:11:03;;;;;;;27.02;12.18;;;;;;;-3.20;57.37;98865.66;4957533;28;20506;-79
2022/01/30 11:13:33;;;;;;;20.95;10.00;;;;;;;-3.24;57.23;98867.50;4926406;28;20039;-79
2022/01/30 11:18:51;;;;;;;25.25;11.68;;;;;;;-3.24;57.27;98851.81;4946204;28;20387;-78
2022/01/30 11:21:22;;;;;;;26.38;12.63;;;;;;;-3.19;57.82;98852.56;4941848;28;20043;-80
2022/01/30 11:23:50;;;;;;;24.63;12.50;;;;;;;-3.24;56.90;98851.81;4925540;28;20113;-80
2022/01/30 11:26:16;;;;;;;29.17;12.93;;;;;;;-3.47;57.51;98859.53;4957492;28;20062;-81
2022/01/30 11:28:42;;;;;;;29.75;15.00;;;;;;;-3.48;57.79;98856.09;4941690;28;20444;-80
2022/01/30 11:31:08;;;;;;;32.38;15.30;;;;;;;-3.59;58.04;98859.94;4976165;28;20047;-81
2022/01/30 11:33:34;;;;;;;35.50;15.48;;;;;;;-3.55;58.56;98870.22;4944141;28;20066;-79
2022/01/30 11:36:00;;;;;;;34.90;14.77;;;;;;;-3.70;58.35;98866.31;4944190;28;20490;-80
2022/01/30 11:38:26;;;;;;;33.80;15.65;;;;;;;-3.69;58.79;98859.34;4943748;28;20050;-79
2022/01/30 11:41:09;;;;;;;31.73;15.10;;;;;;;-3.57;58.58;98859.00;4941483;28;20062;-79
2022/01/30 11:43:35;;;;;;;36.38;15.00;;;;;;;-3.48;58.74;98866.53;4957480;28;20150;-82
2022/01/30 11:46:14;;;;;;;32.20;16.00;;;;;;;-3.44;58.80;98862.06;4925262;28;20550;-78
2022/01/30 11:48:41;;;;;;;36.55;15.38;;;;;;;-3.43;58.82;98866.38;4956979;28;20129;-79
2022/01/30 11:51:07;;;;;;;40.22;16.50;;;;;;;-3.51;58.63;98863.16;4942243;28;20038;-79
2022/01/30 11:53:37;;;;;;;29.27;14.70;;;;;;;-3.69;58.78;98857.59;4942845;28;20038;-79
2022/01/30 11:56:04;;;;;;;27.00;13.30;;;;;;;-3.66;59.20;98854.03;4944700;28;20057;-80
2022/01/30 11:58:33;;;;;;;26.52;14.43;;;;;;;-3.70;59.33;98850.66;4961117;28;20050;-78
2022/01/30 12:01:02;;;;;;;28.38;13.45;;;;;;;-3.69;59.72;98847.13;4944723;28;20043;-79
2022/01/30 12:03:30;;;;;;;33.25;14.82;;;;;;;-3.69;59.55;98841.91;4977882;28;20062;-80
2022/01/30 12:06:16;;;;;;;33.47;14.25;;;;;;;-3.77;59.63;98843.91;4978691;28;20054;-81
2022/01/30 12:08:46;;;;;;;34.00;14.00;;;;;;;-3.85;59.75;98843.28;4968724;28;20046;-80
2022/01/30 12:11:31;;;;;;;;;;;;;;;-3.84;60.17;98852.81;4969099;28;20051;-79
2022/01/30 12:13:58;;;;;;;31.77;14.40;;;;;;;-3.99;60.21;98837.59;4982959;28;19968;-78
2022/01/30 12:16:57;;;;;;;31.02;15.05;;;;;;;-4.06;61.03;98851.72;4932203;28;20039;-80
2022/01/30 12:19:45;;;;;;;44.38;15.07;;;;;;;-4.13;60.98;98834.56;4956013;28;20047;-80
2022/01/30 12:22:20;;;;;;;38.08;14.75;;;;;;;-4.07;61.20;98835.22;4957939;29;20059;-79
2022/01/30 12:24:51;;;;;;;28.65;13.63;;;;;;;-4.02;61.41;98840.34;4942733;29;20109;-79
2022/01/30 12:27:17;;;;;;;33.42;13.90;;;;;;;-4.07;61.19;98844.81;4926124;29;20054;-81